Terminal Aerodrome Forecast
Issued by NWS Lake Charles, LA

Home | Current Version | Previous Version | Text Only | Print | Product List | Glossary On
Versions: 1 2 3 4 5 6 7 8 9 10 11 12 13
000
FTUS44 KLCH 211135
TAFARA
TAF
KARA 211135Z 2112/2212 VRB05KT P6SM VCSH SCT007 SCT025
      TEMPO 2112/2115 BKN015
     FM211500 13010KT P6SM VCSH BKN025
     FM211800 15012KT P6SM VCTS BKN035CB
     FM220300 13007KT P6SM BKN015=

USA.gov is the U.S. government's official web portal to all federal, state and local government web resources and services.